sensor_id;sensor_type;location;lat;lon;timestamp;P1;durP1;ratioP1;P2;durP2;ratioP2
48651;SDS011;34442;52.362;-1.302;2023-02-28T00:01:06;2.28;;;1.10;;
48651;SDS011;34442;52.362;-1.302;2023-02-28T00:03:32;1.83;;;1.05;;
48651;SDS011;34442;52.362;-1.302;2023-02-28T00:06:01;2.08;;;1.20;;
48651;SDS011;34442;52.362;-1.302;2023-02-28T00:08:30;1.23;;;0.90;;
48651;SDS011;34442;52.362;-1.302;2023-02-28T00:11:00;1.95;;;1.00;;
48651;SDS011;34442;52.362;-1.302;2023-02-28T00:13:26;1.60;;;0.90;;
48651;SDS011;34442;52.362;-1.302;2023-02-28T00:15:58;1.15;;;0.90;;
48651;SDS011;34442;52.362;-1.302;2023-02-28T00:18:28;1.98;;;0.90;;
48651;SDS011;34442;52.362;-1.302;2023-02-28T00:20:53;1.45;;;0.70;;
48651;SDS011;34442;52.362;-1.302;2023-02-28T00:23:19;1.73;;;0.80;;
48651;SDS011;34442;52.362;-1.302;2023-02-28T00:25:44;0.82;;;0.75;;
48651;SDS011;34442;52.362;-1.302;2023-02-28T00:28:09;1.05;;;0.90;;
48651;SDS011;34442;52.362;-1.302;2023-02-28T00:30:35;0.75;;;0.60;;
48651;SDS011;34442;52.362;-1.302;2023-02-28T00:33:00;1.58;;;0.90;;
48651;SDS011;34442;52.362;-1.302;2023-02-28T00:35:26;0.73;;;0.70;;
48651;SDS011;34442;52.362;-1.302;2023-02-28T00:37:51;0.80;;;0.70;;
48651;SDS011;34442;52.362;-1.302;2023-02-28T00:40:16;0.82;;;0.70;;
48651;SDS011;34442;52.362;-1.302;2023-02-28T00:42:42;0.85;;;0.70;;
48651;SDS011;34442;52.362;-1.302;2023-02-28T00:45:08;1.10;;;0.80;;
48651;SDS011;34442;52.362;-1.302;2023-02-28T00:47:33;1.10;;;0.85;;
48651;SDS011;34442;52.362;-1.302;2023-02-28T00:49:59;1.00;;;0.90;;
48651;SDS011;34442;52.362;-1.302;2023-02-28T00:52:25;1.00;;;0.90;;
48651;SDS011;34442;52.362;-1.302;2023-02-28T00:54:50;1.38;;;1.00;;
48651;SDS011;34442;52.362;-1.302;2023-02-28T00:57:16;1.60;;;1.00;;
48651;SDS011;34442;52.362;-1.302;2023-02-28T00:59:41;1.10;;;0.88;;
48651;SDS011;34442;52.362;-1.302;2023-02-28T01:02:06;0.70;;;0.70;;
48651;SDS011;34442;52.362;-1.302;2023-02-28T01:04:32;1.35;;;0.88;;
48651;SDS011;34442;52.362;-1.302;2023-02-28T01:06:57;1.10;;;1.00;;
48651;SDS011;34442;52.362;-1.302;2023-02-28T01:09:23;1.30;;;1.00;;
48651;SDS011;34442;52.362;-1.302;2023-02-28T01:11:48;1.08;;;0.95;;
48651;SDS011;34442;52.362;-1.302;2023-02-28T01:14:14;1.48;;;0.93;;
48651;SDS011;34442;52.362;-1.302;2023-02-28T01:16:41;1.17;;;0.90;;
48651;SDS011;34442;52.362;-1.302;2023-02-28T01:19:07;1.80;;;1.00;;
48651;SDS011;34442;52.362;-1.302;2023-02-28T01:21:33;2.17;;;1.23;;
48651;SDS011;34442;52.362;-1.302;2023-02-28T01:23:59;2.53;;;1.20;;
48651;SDS011;34442;52.362;-1.302;2023-02-28T01:26:25;1.25;;;0.90;;
48651;SDS011;34442;52.362;-1.302;2023-02-28T01:28:51;1.38;;;0.85;;
48651;SDS011;34442;52.362;-1.302;2023-02-28T01:31:18;2.85;;;1.33;;
48651;SDS011;34442;52.362;-1.302;2023-02-28T01:33:45;1.58;;;1.00;;
48651;SDS011;34442;52.362;-1.302;2023-02-28T01:36:12;1.02;;;0.93;;
48651;SDS011;34442;52.362;-1.302;2023-02-28T01:38:39;1.27;;;1.00;;
48651;SDS011;34442;52.362;-1.302;2023-02-28T01:41:06;3.20;;;1.70;;
48651;SDS011;34442;52.362;-1.302;2023-02-28T01:46:13;2.58;;;1.30;;
48651;SDS011;34442;52.362;-1.302;2023-02-28T01:48:44;1.55;;;1.15;;
48651;SDS011;34442;52.362;-1.302;2023-02-28T01:51:57;1.70;;;1.00;;
48651;SDS011;34442;52.362;-1.302;2023-02-28T01:54:29;2.40;;;1.30;;
48651;SDS011;34442;52.362;-1.302;2023-02-28T01:56:58;1.77;;;1.10;;
48651;SDS011;34442;52.362;-1.302;2023-02-28T01:59:34;1.55;;;1.00;;
48651;SDS011;34442;52.362;-1.302;2023-02-28T02:02:16;2.45;;;1.55;;
48651;SDS011;34442;52.362;-1.302;2023-02-28T02:05:06;1.50;;;1.05;;
48651;SDS011;34442;52.362;-1.302;2023-02-28T02:07:35;2.22;;;0.90;;
48651;SDS011;34442;52.362;-1.302;2023-02-28T02:10:10;2.25;;;1.33;;
48651;SDS011;34442;52.362;-1.302;2023-02-28T02:37:24;1.20;;;0.80;;
48651;SDS011;34442;52.362;-1.302;2023-02-28T02:40:02;1.48;;;1.10;;
48651;SDS011;34442;52.362;-1.302;2023-02-28T02:45:22;1.85;;;1.30;;
48651;SDS011;34442;52.362;-1.302;2023-02-28T02:47:53;2.63;;;1.45;;
48651;SDS011;34442;52.362;-1.302;2023-02-28T02:50:24;2.45;;;1.30;;
48651;SDS011;34442;52.362;-1.302;2023-02-28T02:52:56;2.30;;;1.33;;
48651;SDS011;34442;52.362;-1.302;2023-02-28T02:55:25;2.33;;;1.40;;
48651;SDS011;34442;52.362;-1.302;2023-02-28T02:57:54;2.03;;;1.13;;
48651;SDS011;34442;52.362;-1.302;2023-02-28T03:00:29;2.05;;;1.20;;
48651;SDS011;34442;52.362;-1.302;2023-02-28T03:03:00;2.03;;;1.30;;
48651;SDS011;34442;52.362;-1.302;2023-02-28T03:05:35;1.95;;;1.10;;
48651;SDS011;34442;52.362;-1.302;2023-02-28T03:08:07;3.03;;;1.42;;
48651;SDS011;34442;52.362;-1.302;2023-02-28T03:10:39;2.15;;;1.45;;
48651;SDS011;34442;52.362;-1.302;2023-02-28T03:18:36;3.67;;;1.95;;
48651;SDS011;34442;52.362;-1.302;2023-02-28T03:21:14;2.72;;;1.50;;
48651;SDS011;34442;52.362;-1.302;2023-02-28T03:23:46;2.13;;;1.15;;
48651;SDS011;34442;52.362;-1.302;2023-02-28T03:31:26;2.92;;;1.65;;
48651;SDS011;34442;52.362;-1.302;2023-02-28T03:34:10;2.50;;;1.40;;
48651;SDS011;34442;52.362;-1.302;2023-02-28T03:36:43;2.83;;;1.40;;
48651;SDS011;34442;52.362;-1.302;2023-02-28T03:42:18;2.55;;;1.30;;
48651;SDS011;34442;52.362;-1.302;2023-02-28T03:44:57;3.55;;;1.58;;
48651;SDS011;34442;52.362;-1.302;2023-02-28T03:48:28;1.95;;;1.27;;
48651;SDS011;34442;52.362;-1.302;2023-02-28T03:50:35;2.50;;;1.40;;
48651;SDS011;34442;52.362;-1.302;2023-02-28T03:53:08;2.50;;;1.20;;
48651;SDS011;34442;52.362;-1.302;2023-02-28T03:55:43;2.28;;;1.30;;
48651;SDS011;34442;52.362;-1.302;2023-02-28T04:00:46;3.10;;;1.50;;
48651;SDS011;34442;52.362;-1.302;2023-02-28T04:03:16;2.35;;;1.45;;
48651;SDS011;34442;52.362;-1.302;2023-02-28T04:06:00;2.97;;;1.42;;
48651;SDS011;34442;52.362;-1.302;2023-02-28T04:08:25;2.67;;;1.30;;
48651;SDS011;34442;52.362;-1.302;2023-02-28T04:10:53;2.80;;;1.40;;
48651;SDS011;34442;52.362;-1.302;2023-02-28T04:13:22;2.15;;;1.13;;
48651;SDS011;34442;52.362;-1.302;2023-02-28T04:15:48;2.08;;;1.20;;
48651;SDS011;34442;52.362;-1.302;2023-02-28T04:18:13;2.67;;;1.55;;
48651;SDS011;34442;52.362;-1.302;2023-02-28T04:20:39;3.08;;;1.50;;
48651;SDS011;34442;52.362;-1.302;2023-02-28T04:23:04;2.42;;;1.30;;
48651;SDS011;34442;52.362;-1.302;2023-02-28T04:25:29;2.38;;;1.30;;
48651;SDS011;34442;52.362;-1.302;2023-02-28T04:27:55;2.08;;;1.20;;
48651;SDS011;34442;52.362;-1.302;2023-02-28T04:30:20;3.58;;;1.98;;
48651;SDS011;34442;52.362;-1.302;2023-02-28T04:32:46;3.83;;;1.65;;
48651;SDS011;34442;52.362;-1.302;2023-02-28T04:35:11;6.20;;;2.78;;
48651;SDS011;34442;52.362;-1.302;2023-02-28T04:37:36;3.63;;;2.00;;
48651;SDS011;34442;52.362;-1.302;2023-02-28T04:40:02;3.85;;;1.90;;
48651;SDS011;34442;52.362;-1.302;2023-02-28T04:42:28;3.45;;;1.55;;
48651;SDS011;34442;52.362;-1.302;2023-02-28T04:45:00;4.50;;;2.35;;
48651;SDS011;34442;52.362;-1.302;2023-02-28T04:47:27;3.72;;;1.98;;
48651;SDS011;34442;52.362;-1.302;2023-02-28T04:49:53;2.83;;;1.58;;
48651;SDS011;34442;52.362;-1.302;2023-02-28T04:52:18;2.70;;;1.65;;
48651;SDS011;34442;52.362;-1.302;2023-02-28T04:54:44;2.83;;;1.48;;
48651;SDS011;34442;52.362;-1.302;2023-02-28T04:57:10;3.42;;;1.75;;
48651;SDS011;34442;52.362;-1.302;2023-02-28T04:59:35;4.22;;;2.38;;
48651;SDS011;34442;52.362;-1.302;2023-02-28T05:02:00;2.97;;;1.88;;
48651;SDS011;34442;52.362;-1.302;2023-02-28T05:04:31;4.53;;;2.25;;
48651;SDS011;34442;52.362;-1.302;2023-02-28T05:06:59;3.47;;;1.67;;
48651;SDS011;34442;52.362;-1.302;2023-02-28T05:09:25;3.58;;;2.05;;
48651;SDS011;34442;52.362;-1.302;2023-02-28T05:11:50;4.40;;;2.13;;
48651;SDS011;34442;52.362;-1.302;2023-02-28T05:14:16;3.92;;;1.95;;
48651;SDS011;34442;52.362;-1.302;2023-02-28T05:16:41;3.85;;;1.70;;
48651;SDS011;34442;52.362;-1.302;2023-02-28T05:19:07;3.00;;;1.55;;
48651;SDS011;34442;52.362;-1.302;2023-02-28T05:21:33;4.72;;;1.95;;
48651;SDS011;34442;52.362;-1.302;2023-02-28T05:24:02;3.58;;;1.70;;
48651;SDS011;34442;52.362;-1.302;2023-02-28T05:26:30;2.88;;;1.77;;
48651;SDS011;34442;52.362;-1.302;2023-02-28T05:28:56;3.55;;;1.70;;
48651;SDS011;34442;52.362;-1.302;2023-02-28T05:31:22;3.17;;;1.48;;
48651;SDS011;34442;52.362;-1.302;2023-02-28T05:33:47;2.88;;;1.30;;
48651;SDS011;34442;52.362;-1.302;2023-02-28T05:36:13;2.35;;;1.20;;
48651;SDS011;34442;52.362;-1.302;2023-02-28T05:38:38;2.10;;;1.13;;
48651;SDS011;34442;52.362;-1.302;2023-02-28T05:41:07;2.17;;;1.20;;
48651;SDS011;34442;52.362;-1.302;2023-02-28T05:43:34;2.53;;;1.40;;
48651;SDS011;34442;52.362;-1.302;2023-02-28T05:46:02;3.30;;;1.60;;
48651;SDS011;34442;52.362;-1.302;2023-02-28T05:48:28;3.13;;;1.73;;
48651;SDS011;34442;52.362;-1.302;2023-02-28T05:50:54;2.88;;;1.58;;
48651;SDS011;34442;52.362;-1.302;2023-02-28T05:53:19;2.15;;;1.27;;
48651;SDS011;34442;52.362;-1.302;2023-02-28T05:55:45;3.05;;;1.30;;
48651;SDS011;34442;52.362;-1.302;2023-02-28T05:58:11;2.25;;;1.15;;
48651;SDS011;34442;52.362;-1.302;2023-02-28T06:00:36;4.28;;;1.42;;
48651;SDS011;34442;52.362;-1.302;2023-02-28T06:03:02;4.47;;;2.33;;
48651;SDS011;34442;52.362;-1.302;2023-02-28T06:05:27;3.67;;;2.10;;
48651;SDS011;34442;52.362;-1.302;2023-02-28T06:07:53;3.05;;;1.30;;
48651;SDS011;34442;52.362;-1.302;2023-02-28T06:10:18;2.20;;;1.30;;
48651;SDS011;34442;52.362;-1.302;2023-02-28T06:12:44;2.25;;;1.15;;
48651;SDS011;34442;52.362;-1.302;2023-02-28T06:15:13;2.33;;;1.33;;
48651;SDS011;34442;52.362;-1.302;2023-02-28T06:17:43;3.45;;;1.60;;
48651;SDS011;34442;52.362;-1.302;2023-02-28T06:20:09;1.80;;;1.13;;
48651;SDS011;34442;52.362;-1.302;2023-02-28T06:22:37;2.10;;;1.33;;
48651;SDS011;34442;52.362;-1.302;2023-02-28T06:25:04;3.45;;;1.50;;
48651;SDS011;34442;52.362;-1.302;2023-02-28T06:27:31;3.15;;;1.60;;
48651;SDS011;34442;52.362;-1.302;2023-02-28T06:29:57;3.50;;;1.70;;
48651;SDS011;34442;52.362;-1.302;2023-02-28T06:32:22;2.70;;;1.40;;
48651;SDS011;34442;52.362;-1.302;2023-02-28T06:34:48;2.75;;;1.50;;
48651;SDS011;34442;52.362;-1.302;2023-02-28T06:37:14;3.60;;;1.50;;
48651;SDS011;34442;52.362;-1.302;2023-02-28T06:39:39;2.70;;;1.50;;
48651;SDS011;34442;52.362;-1.302;2023-02-28T06:42:05;1.88;;;1.00;;
48651;SDS011;34442;52.362;-1.302;2023-02-28T06:44:30;3.83;;;1.48;;
48651;SDS011;34442;52.362;-1.302;2023-02-28T06:47:02;2.00;;;1.20;;
48651;SDS011;34442;52.362;-1.302;2023-02-28T06:49:30;2.08;;;1.20;;
48651;SDS011;34442;52.362;-1.302;2023-02-28T06:51:59;2.92;;;1.17;;
48651;SDS011;34442;52.362;-1.302;2023-02-28T06:54:25;1.95;;;1.10;;
48651;SDS011;34442;52.362;-1.302;2023-02-28T06:56:50;2.22;;;1.00;;
48651;SDS011;34442;52.362;-1.302;2023-02-28T06:59:16;2.13;;;1.20;;
48651;SDS011;34442;52.362;-1.302;2023-02-28T07:01:42;3.38;;;1.20;;
48651;SDS011;34442;52.362;-1.302;2023-02-28T07:04:07;2.53;;;1.10;;
48651;SDS011;34442;52.362;-1.302;2023-02-28T07:06:33;2.45;;;1.10;;
48651;SDS011;34442;52.362;-1.302;2023-02-28T07:08:58;2.25;;;1.30;;
48651;SDS011;34442;52.362;-1.302;2023-02-28T07:11:25;1.50;;;0.95;;
48651;SDS011;34442;52.362;-1.302;2023-02-28T07:13:52;1.55;;;1.13;;
48651;SDS011;34442;52.362;-1.302;2023-02-28T07:16:18;2.22;;;1.10;;
48651;SDS011;34442;52.362;-1.302;2023-02-28T07:18:44;2.25;;;1.10;;
48651;SDS011;34442;52.362;-1.302;2023-02-28T07:21:11;2.38;;;1.20;;
48651;SDS011;34442;52.362;-1.302;2023-02-28T07:23:37;2.60;;;1.50;;
48651;SDS011;34442;52.362;-1.302;2023-02-28T07:26:04;3.25;;;1.92;;
48651;SDS011;34442;52.362;-1.302;2023-02-28T07:28:30;3.58;;;1.67;;
48651;SDS011;34442;52.362;-1.302;2023-02-28T07:30:55;2.92;;;1.70;;
48651;SDS011;34442;52.362;-1.302;2023-02-28T07:33:21;3.25;;;1.98;;
48651;SDS011;34442;52.362;-1.302;2023-02-28T07:35:46;3.65;;;1.85;;
48651;SDS011;34442;52.362;-1.302;2023-02-28T07:38:12;4.90;;;2.92;;
48651;SDS011;34442;52.362;-1.302;2023-02-28T07:40:38;4.63;;;1.95;;
48651;SDS011;34442;52.362;-1.302;2023-02-28T07:43:05;3.85;;;1.70;;
48651;SDS011;34442;52.362;-1.302;2023-02-28T07:45:30;5.07;;;2.20;;
48651;SDS011;34442;52.362;-1.302;2023-02-28T07:47:59;3.53;;;1.98;;
48651;SDS011;34442;52.362;-1.302;2023-02-28T07:50:25;4.93;;;2.25;;
48651;SDS011;34442;52.362;-1.302;2023-02-28T07:52:52;4.43;;;1.83;;
48651;SDS011;34442;52.362;-1.302;2023-02-28T07:55:18;5.15;;;1.90;;
48651;SDS011;34442;52.362;-1.302;2023-02-28T07:57:46;6.15;;;2.90;;
48651;SDS011;34442;52.362;-1.302;2023-02-28T08:00:11;6.63;;;2.78;;
48651;SDS011;34442;52.362;-1.302;2023-02-28T08:02:38;8.65;;;4.45;;
48651;SDS011;34442;52.362;-1.302;2023-02-28T08:05:04;7.13;;;3.30;;
48651;SDS011;34442;52.362;-1.302;2023-02-28T08:07:30;8.27;;;4.35;;
48651;SDS011;34442;52.362;-1.302;2023-02-28T08:09:56;6.85;;;2.95;;
48651;SDS011;34442;52.362;-1.302;2023-02-28T08:12:24;6.47;;;2.70;;
48651;SDS011;34442;52.362;-1.302;2023-02-28T08:14:50;5.68;;;2.70;;
48651;SDS011;34442;52.362;-1.302;2023-02-28T08:17:15;6.38;;;3.40;;
48651;SDS011;34442;52.362;-1.302;2023-02-28T08:19:41;6.10;;;2.83;;
48651;SDS011;34442;52.362;-1.302;2023-02-28T08:22:06;7.30;;;3.67;;
48651;SDS011;34442;52.362;-1.302;2023-02-28T08:24:32;7.10;;;3.53;;
48651;SDS011;34442;52.362;-1.302;2023-02-28T08:26:58;8.55;;;4.43;;
48651;SDS011;34442;52.362;-1.302;2023-02-28T08:29:24;6.15;;;2.50;;
48651;SDS011;34442;52.362;-1.302;2023-02-28T08:31:49;7.13;;;3.45;;
48651;SDS011;34442;52.362;-1.302;2023-02-28T08:34:15;5.35;;;2.50;;
48651;SDS011;34442;52.362;-1.302;2023-02-28T08:36:41;8.00;;;4.35;;
48651;SDS011;34442;52.362;-1.302;2023-02-28T08:39:10;8.25;;;4.15;;
48651;SDS011;34442;52.362;-1.302;2023-02-28T08:41:35;7.05;;;3.13;;
48651;SDS011;34442;52.362;-1.302;2023-02-28T08:44:01;7.30;;;3.53;;
48651;SDS011;34442;52.362;-1.302;2023-02-28T08:46:27;6.10;;;2.88;;
48651;SDS011;34442;52.362;-1.302;2023-02-28T08:48:53;8.10;;;4.47;;
48651;SDS011;34442;52.362;-1.302;2023-02-28T08:51:20;6.03;;;3.30;;
48651;SDS011;34442;52.362;-1.302;2023-02-28T08:53:51;7.00;;;4.10;;
48651;SDS011;34442;52.362;-1.302;2023-02-28T08:56:18;7.13;;;3.65;;
48651;SDS011;34442;52.362;-1.302;2023-02-28T08:58:44;7.05;;;3.65;;
48651;SDS011;34442;52.362;-1.302;2023-02-28T09:01:12;6.05;;;3.15;;
48651;SDS011;34442;52.362;-1.302;2023-02-28T09:03:43;4.93;;;2.40;;
48651;SDS011;34442;52.362;-1.302;2023-02-28T09:06:11;4.95;;;2.67;;
48651;SDS011;34442;52.362;-1.302;2023-02-28T09:08:39;5.50;;;3.15;;
48651;SDS011;34442;52.362;-1.302;2023-02-28T09:11:05;6.07;;;3.28;;
48651;SDS011;34442;52.362;-1.302;2023-02-28T09:13:31;4.93;;;2.45;;
48651;SDS011;34442;52.362;-1.302;2023-02-28T09:16:00;4.85;;;2.55;;
48651;SDS011;34442;52.362;-1.302;2023-02-28T09:18:28;5.07;;;2.65;;
48651;SDS011;34442;52.362;-1.302;2023-02-28T09:20:55;5.18;;;2.55;;
48651;SDS011;34442;52.362;-1.302;2023-02-28T09:23:22;5.10;;;3.03;;
48651;SDS011;34442;52.362;-1.302;2023-02-28T09:25:52;7.75;;;3.17;;
48651;SDS011;34442;52.362;-1.302;2023-02-28T09:28:19;4.90;;;2.28;;
48651;SDS011;34442;52.362;-1.302;2023-02-28T09:30:46;4.72;;;2.33;;
48651;SDS011;34442;52.362;-1.302;2023-02-28T09:33:13;6.00;;;2.72;;
48651;SDS011;34442;52.362;-1.302;2023-02-28T09:35:40;5.80;;;2.45;;
48651;SDS011;34442;52.362;-1.302;2023-02-28T09:38:06;4.65;;;2.30;;
48651;SDS011;34442;52.362;-1.302;2023-02-28T09:40:34;4.35;;;2.30;;
48651;SDS011;34442;52.362;-1.302;2023-02-28T09:43:10;6.10;;;3.25;;
48651;SDS011;34442;52.362;-1.302;2023-02-28T09:45:39;5.53;;;3.03;;
48651;SDS011;34442;52.362;-1.302;2023-02-28T09:48:21;5.03;;;2.63;;
48651;SDS011;34442;52.362;-1.302;2023-02-28T09:51:00;6.65;;;2.75;;
48651;SDS011;34442;52.362;-1.302;2023-02-28T09:53:33;5.00;;;2.45;;
48651;SDS011;34442;52.362;-1.302;2023-02-28T09:56:05;6.85;;;3.53;;
48651;SDS011;34442;52.362;-1.302;2023-02-28T10:01:21;7.13;;;3.75;;
48651;SDS011;34442;52.362;-1.302;2023-02-28T10:04:04;5.57;;;2.72;;
48651;SDS011;34442;52.362;-1.302;2023-02-28T10:06:55;6.18;;;3.30;;
48651;SDS011;34442;52.362;-1.302;2023-02-28T10:09:24;6.47;;;3.72;;
48651;SDS011;34442;52.362;-1.302;2023-02-28T10:11:52;6.40;;;3.17;;
48651;SDS011;34442;52.362;-1.302;2023-02-28T10:14:22;4.80;;;2.63;;
48651;SDS011;34442;52.362;-1.302;2023-02-28T10:17:03;5.78;;;2.85;;
48651;SDS011;34442;52.362;-1.302;2023-02-28T10:22:17;7.05;;;3.67;;
48651;SDS011;34442;52.362;-1.302;2023-02-28T10:24:54;7.63;;;3.10;;
48651;SDS011;34442;52.362;-1.302;2023-02-28T10:27:31;5.55;;;3.05;;
48651;SDS011;34442;52.362;-1.302;2023-02-28T10:30:01;5.22;;;2.78;;
48651;SDS011;34442;52.362;-1.302;2023-02-28T10:32:31;5.20;;;2.38;;
48651;SDS011;34442;52.362;-1.302;2023-02-28T10:37:45;5.22;;;2.83;;
48651;SDS011;34442;52.362;-1.302;2023-02-28T10:43:03;4.90;;;2.67;;
48651;SDS011;34442;52.362;-1.302;2023-02-28T10:45:34;5.10;;;2.53;;
48651;SDS011;34442;52.362;-1.302;2023-02-28T10:48:44;4.85;;;2.38;;
48651;SDS011;34442;52.362;-1.302;2023-02-28T10:51:02;4.72;;;2.55;;
48651;SDS011;34442;52.362;-1.302;2023-02-28T10:53:33;4.40;;;2.65;;
48651;SDS011;34442;52.362;-1.302;2023-02-28T11:01:40;4.30;;;2.05;;
48651;SDS011;34442;52.362;-1.302;2023-02-28T11:04:16;4.97;;;1.90;;
48651;SDS011;34442;52.362;-1.302;2023-02-28T11:09:53;4.03;;;1.98;;
48651;SDS011;34442;52.362;-1.302;2023-02-28T11:14:54;5.55;;;2.40;;
48651;SDS011;34442;52.362;-1.302;2023-02-28T11:17:24;4.65;;;2.67;;
48651;SDS011;34442;52.362;-1.302;2023-02-28T11:19:53;5.50;;;2.42;;
48651;SDS011;34442;52.362;-1.302;2023-02-28T11:22:27;4.38;;;2.17;;
48651;SDS011;34442;52.362;-1.302;2023-02-28T11:24:57;4.28;;;2.00;;
48651;SDS011;34442;52.362;-1.302;2023-02-28T11:29:54;4.38;;;2.10;;
48651;SDS011;34442;52.362;-1.302;2023-02-28T11:32:21;5.20;;;2.75;;
48651;SDS011;34442;52.362;-1.302;2023-02-28T11:37:36;4.28;;;2.47;;
48651;SDS011;34442;52.362;-1.302;2023-02-28T11:40:05;4.20;;;2.30;;
48651;SDS011;34442;52.362;-1.302;2023-02-28T11:50:57;4.93;;;2.38;;
48651;SDS011;34442;52.362;-1.302;2023-02-28T11:56:10;3.45;;;1.70;;
48651;SDS011;34442;52.362;-1.302;2023-02-28T12:10:01;4.03;;;2.20;;
48651;SDS011;34442;52.362;-1.302;2023-02-28T12:20:26;1.95;;;1.17;;
48651;SDS011;34442;52.362;-1.302;2023-02-28T12:29:13;1.75;;;1.08;;
48651;SDS011;34442;52.362;-1.302;2023-02-28T12:32:40;1.80;;;0.88;;
48651;SDS011;34442;52.362;-1.302;2023-02-28T12:35:02;2.58;;;1.17;;
48651;SDS011;34442;52.362;-1.302;2023-02-28T12:37:38;2.58;;;1.35;;
48651;SDS011;34442;52.362;-1.302;2023-02-28T12:40:13;3.00;;;1.25;;
48651;SDS011;34442;52.362;-1.302;2023-02-28T12:42:45;3.50;;;1.40;;
48651;SDS011;34442;52.362;-1.302;2023-02-28T12:45:21;2.15;;;1.25;;
48651;SDS011;34442;52.362;-1.302;2023-02-28T12:47:50;2.03;;;1.27;;
48651;SDS011;34442;52.362;-1.302;2023-02-28T12:50:29;2.13;;;1.20;;
48651;SDS011;34442;52.362;-1.302;2023-02-28T12:53:09;2.47;;;1.30;;
48651;SDS011;34442;52.362;-1.302;2023-02-28T12:56:09;1.67;;;1.10;;
48651;SDS011;34442;52.362;-1.302;2023-02-28T13:04:28;3.00;;;1.58;;
48651;SDS011;34442;52.362;-1.302;2023-02-28T13:09:24;3.78;;;1.58;;
48651;SDS011;34442;52.362;-1.302;2023-02-28T13:11:53;2.90;;;1.45;;
48651;SDS011;34442;52.362;-1.302;2023-02-28T13:22:04;2.55;;;1.30;;
48651;SDS011;34442;52.362;-1.302;2023-02-28T13:27:17;2.58;;;1.42;;
48651;SDS011;34442;52.362;-1.302;2023-02-28T13:29:51;2.75;;;1.55;;
48651;SDS011;34442;52.362;-1.302;2023-02-28T13:32:31;2.97;;;1.58;;
48651;SDS011;34442;52.362;-1.302;2023-02-28T13:39:52;2.72;;;1.60;;
48651;SDS011;34442;52.362;-1.302;2023-02-28T13:47:28;3.10;;;1.88;;
48651;SDS011;34442;52.362;-1.302;2023-02-28T14:01:12;2.08;;;1.30;;
48651;SDS011;34442;52.362;-1.302;2023-02-28T14:11:51;1.65;;;1.15;;
48651;SDS011;34442;52.362;-1.302;2023-02-28T14:17:05;4.00;;;1.55;;
48651;SDS011;34442;52.362;-1.302;2023-02-28T14:19:35;3.58;;;1.80;;
48651;SDS011;34442;52.362;-1.302;2023-02-28T14:25:11;2.90;;;1.45;;
48651;SDS011;34442;52.362;-1.302;2023-02-28T14:27:48;2.17;;;1.27;;
48651;SDS011;34442;52.362;-1.302;2023-02-28T14:36:12;3.08;;;1.40;;
48651;SDS011;34442;52.362;-1.302;2023-02-28T14:38:47;1.88;;;1.10;;
48651;SDS011;34442;52.362;-1.302;2023-02-28T14:41:35;2.30;;;1.10;;
48651;SDS011;34442;52.362;-1.302;2023-02-28T14:44:13;2.63;;;1.30;;
48651;SDS011;34442;52.362;-1.302;2023-02-28T14:46:39;2.92;;;1.50;;
48651;SDS011;34442;52.362;-1.302;2023-02-28T14:49:09;1.45;;;1.00;;
48651;SDS011;34442;52.362;-1.302;2023-02-28T14:54:56;1.63;;;1.10;;
48651;SDS011;34442;52.362;-1.302;2023-02-28T14:57:25;3.28;;;1.23;;
48651;SDS011;34442;52.362;-1.302;2023-02-28T15:02:25;1.15;;;0.95;;
48651;SDS011;34442;52.362;-1.302;2023-02-28T15:04:52;1.33;;;0.93;;
48651;SDS011;34442;52.362;-1.302;2023-02-28T15:07:22;1.48;;;1.02;;
48651;SDS011;34442;52.362;-1.302;2023-02-28T15:10:09;2.25;;;1.00;;
48651;SDS011;34442;52.362;-1.302;2023-02-28T15:12:40;1.85;;;1.10;;
48651;SDS011;34442;52.362;-1.302;2023-02-28T15:15:17;1.02;;;0.80;;
48651;SDS011;34442;52.362;-1.302;2023-02-28T15:17:49;2.00;;;0.88;;
48651;SDS011;34442;52.362;-1.302;2023-02-28T15:20:21;1.50;;;0.90;;
48651;SDS011;34442;52.362;-1.302;2023-02-28T15:22:48;1.90;;;1.08;;
48651;SDS011;34442;52.362;-1.302;2023-02-28T15:25:21;1.80;;;1.10;;
48651;SDS011;34442;52.362;-1.302;2023-02-28T15:27:49;2.03;;;1.15;;
48651;SDS011;34442;52.362;-1.302;2023-02-28T15:30:20;1.67;;;1.02;;
48651;SDS011;34442;52.362;-1.302;2023-02-28T15:33:04;1.50;;;1.00;;
48651;SDS011;34442;52.362;-1.302;2023-02-28T15:35:50;1.23;;;1.00;;
48651;SDS011;34442;52.362;-1.302;2023-02-28T15:38:27;1.20;;;1.00;;
48651;SDS011;34442;52.362;-1.302;2023-02-28T15:40:54;1.60;;;1.08;;
48651;SDS011;34442;52.362;-1.302;2023-02-28T15:43:37;1.33;;;0.93;;
48651;SDS011;34442;52.362;-1.302;2023-02-28T15:46:09;1.60;;;1.10;;
48651;SDS011;34442;52.362;-1.302;2023-02-28T15:51:18;1.25;;;1.00;;
48651;SDS011;34442;52.362;-1.302;2023-02-28T15:53:48;1.60;;;1.23;;
48651;SDS011;34442;52.362;-1.302;2023-02-28T15:56:29;1.85;;;1.25;;
48651;SDS011;34442;52.362;-1.302;2023-02-28T15:58:58;2.63;;;1.42;;
48651;SDS011;34442;52.362;-1.302;2023-02-28T16:01:30;3.00;;;1.55;;
48651;SDS011;34442;52.362;-1.302;2023-02-28T16:04:04;3.03;;;1.50;;
48651;SDS011;34442;52.362;-1.302;2023-02-28T16:06:38;2.00;;;1.38;;
48651;SDS011;34442;52.362;-1.302;2023-02-28T16:09:08;2.45;;;1.60;;
48651;SDS011;34442;52.362;-1.302;2023-02-28T16:11:37;1.88;;;1.30;;
48651;SDS011;34442;52.362;-1.302;2023-02-28T16:14:06;2.83;;;1.50;;
48651;SDS011;34442;52.362;-1.302;2023-02-28T16:16:31;2.72;;;1.45;;
48651;SDS011;34442;52.362;-1.302;2023-02-28T16:18:58;3.88;;;1.60;;
48651;SDS011;34442;52.362;-1.302;2023-02-28T16:21:24;2.33;;;1.42;;
48651;SDS011;34442;52.362;-1.302;2023-02-28T16:23:50;3.65;;;1.48;;
48651;SDS011;34442;52.362;-1.302;2023-02-28T16:26:18;1.33;;;1.20;;
48651;SDS011;34442;52.362;-1.302;2023-02-28T16:28:46;2.63;;;1.60;;
48651;SDS011;34442;52.362;-1.302;2023-02-28T16:31:11;1.63;;;1.20;;
48651;SDS011;34442;52.362;-1.302;2023-02-28T16:33:41;2.15;;;1.20;;
48651;SDS011;34442;52.362;-1.302;2023-02-28T16:36:28;1.75;;;1.10;;
48651;SDS011;34442;52.362;-1.302;2023-02-28T16:38:54;1.95;;;1.23;;
48651;SDS011;34442;52.362;-1.302;2023-02-28T16:41:24;2.25;;;1.27;;
48651;SDS011;34442;52.362;-1.302;2023-02-28T16:43:52;1.38;;;0.90;;
48651;SDS011;34442;52.362;-1.302;2023-02-28T16:46:23;2.03;;;1.17;;
48651;SDS011;34442;52.362;-1.302;2023-02-28T16:48:50;1.83;;;1.05;;
48651;SDS011;34442;52.362;-1.302;2023-02-28T16:51:16;1.73;;;1.05;;
48651;SDS011;34442;52.362;-1.302;2023-02-28T16:53:43;2.85;;;1.60;;
48651;SDS011;34442;52.362;-1.302;2023-02-28T16:56:17;2.38;;;1.38;;
48651;SDS011;34442;52.362;-1.302;2023-02-28T16:58:44;3.55;;;1.80;;
48651;SDS011;34442;52.362;-1.302;2023-02-28T17:01:10;1.90;;;1.20;;
48651;SDS011;34442;52.362;-1.302;2023-02-28T17:03:36;1.83;;;1.20;;
48651;SDS011;34442;52.362;-1.302;2023-02-28T17:06:02;2.53;;;1.50;;
48651;SDS011;34442;52.362;-1.302;2023-02-28T17:08:29;3.00;;;1.73;;
48651;SDS011;34442;52.362;-1.302;2023-02-28T17:10:57;3.55;;;1.73;;
48651;SDS011;34442;52.362;-1.302;2023-02-28T17:13:22;3.42;;;1.60;;
48651;SDS011;34442;52.362;-1.302;2023-02-28T17:15:48;3.25;;;1.73;;
48651;SDS011;34442;52.362;-1.302;2023-02-28T17:18:14;4.85;;;2.13;;
48651;SDS011;34442;52.362;-1.302;2023-02-28T17:20:43;2.80;;;1.50;;
48651;SDS011;34442;52.362;-1.302;2023-02-28T17:23:10;3.38;;;1.73;;
48651;SDS011;34442;52.362;-1.302;2023-02-28T17:25:35;2.70;;;1.63;;
48651;SDS011;34442;52.362;-1.302;2023-02-28T17:28:01;2.92;;;1.70;;
48651;SDS011;34442;52.362;-1.302;2023-02-28T17:30:26;3.67;;;1.88;;
48651;SDS011;34442;52.362;-1.302;2023-02-28T17:32:55;2.38;;;1.55;;
48651;SDS011;34442;52.362;-1.302;2023-02-28T17:35:22;2.92;;;1.65;;
48651;SDS011;34442;52.362;-1.302;2023-02-28T17:37:47;3.08;;;1.50;;
48651;SDS011;34442;52.362;-1.302;2023-02-28T17:40:16;3.45;;;1.58;;
48651;SDS011;34442;52.362;-1.302;2023-02-28T17:42:47;2.53;;;1.60;;
48651;SDS011;34442;52.362;-1.302;2023-02-28T17:45:13;2.33;;;1.38;;